Aérodrome :
LOGIN :

S'inscrire | Disclaimer

   EN    FR    IT 

 










Légende :    VFR   VFR Marginal   IFR   IFR Intensif   IFR Très Intensif
Visi : 
Plafond : 
>= 8 km
>= 3000ft
5 à 8 km
1000 à 3000 ft
1500m à 5 km
500 à 1000 ft
800 à 1500m
200 à 500 ft
< 800m
< 200 ft
Symboles :   Orages  Brouillard  Fortes neiges  Fortes précipitations  Vent > 20 kt
SIGMETs :   Divers  Orages  Givrage  Turbulence  Onde Orograph.  Cendres Volcan.






- Altitude de l'aérodrome : 788 ft
- Code IATA : DCM


LFCK - Castres-Mazamet

DERNIER METAR :
  • 160930Z AUTO 12037G49KT CAVOK 14/08 Q1006 NOSIG

METARs EXPIRÉS :
  • 160900Z AUTO 13036G49KT CAVOK 14/09 Q1006 NOSIG
  • 160830Z AUTO 13036G51KT CAVOK 14/09 Q1006 NOSIG
  • 160800Z AUTO 13032G45KT CAVOK 13/09 Q1006 NOSIG
  • 160730Z AUTO 13036G49KT CAVOK 13/09 Q1006 NOSIG
  • 160700Z AUTO 13031G46KT CAVOK 13/09 Q1006 NOSIG

TAF TAF LFCK
Valide du 16 à 09h jusqu'au 16 à 18h UTC


160800Z 1609/1618 12028G42KT CAVOK
TEMPO 1609/1613 13035G52KT
BECMG 1613/1615 BKN013



MET'MAP, la Météo Aéronautique d'un coup d'oeil ! - Copyright ORBIFLY Décembre 2007 - Disclaimer

ORBIFLY MET'MAP TEAM :

Programmation & Développement : Alexandra Zaïnal
Sur une idée originale de : Baudouin d'Aumeries
Assistance à la programmation : Marc-Olivier Méhu
Soutien technique & logistique : Manuel Goepfert

Contact : metmap@orbifly.com




SOURCES & CREDITS :

   NOAA